createdAt,value
2022-11-15T00:01:19.784Z,10.45
2022-11-15T00:04:24.015Z,11.57
2022-11-15T00:07:54.167Z,12.00
2022-11-15T00:10:56.632Z,11.35
2022-11-15T00:14:03.454Z,10.35
2022-11-15T00:17:07.641Z,11.95
2022-11-15T00:20:12.532Z,12.75
2022-11-15T00:23:17.510Z,12.13
2022-11-15T00:26:21.827Z,12.82
2022-11-15T00:29:26.107Z,11.43
2022-11-15T00:32:33.574Z,11.80
2022-11-15T00:35:38.011Z,11.43
2022-11-15T00:38:42.173Z,11.88
2022-11-15T00:41:46.529Z,13.05
2022-11-15T00:44:50.710Z,11.15
2022-11-15T00:47:55.121Z,11.90
2022-11-15T00:50:59.364Z,12.48
2022-11-15T00:54:03.854Z,12.25
2022-11-15T00:57:08.204Z,12.40
2022-11-15T01:00:12.899Z,13.05
2022-11-15T01:03:17.265Z,10.90
2022-11-15T01:06:21.360Z,12.27
2022-11-15T01:09:25.513Z,13.75
2022-11-15T01:12:29.710Z,13.13
2022-11-15T01:15:34.233Z,12.75
2022-11-15T01:18:38.976Z,13.18
2022-11-15T01:21:43.092Z,12.15
2022-11-15T01:24:47.386Z,12.55
2022-11-15T01:27:51.761Z,12.90
2022-11-15T01:30:59.602Z,13.23
2022-11-15T01:34:03.767Z,12.77
2022-11-15T01:37:08.286Z,12.48
2022-11-15T01:40:12.252Z,13.27
2022-11-15T01:43:25.306Z,12.35
2022-11-15T01:46:36.111Z,13.05
2022-11-15T01:49:48.121Z,13.85
2022-11-15T01:52:52.114Z,13.10
2022-11-15T01:55:57.046Z,12.90
2022-11-15T01:59:05.507Z,12.90
2022-11-15T02:02:09.991Z,11.88
2022-11-15T02:05:14.038Z,13.73
2022-11-15T02:08:21.014Z,13.13
2022-11-15T02:11:25.658Z,15.07
2022-11-15T02:14:32.072Z,13.93
2022-11-15T02:17:48.825Z,13.18
2022-11-15T02:21:14.392Z,12.90
2022-11-15T02:24:50.559Z,13.60
2022-11-15T02:28:29.988Z,12.27
2022-11-15T02:31:55.738Z,12.52
2022-11-15T02:35:08.189Z,13.23
2022-11-15T02:38:29.643Z,13.75
2022-11-15T02:41:42.220Z,12.30
2022-11-15T02:44:47.833Z,12.85
2022-11-15T02:47:55.793Z,15.07
2022-11-15T02:51:01.536Z,12.50
2022-11-15T02:54:05.776Z,12.82
2022-11-15T02:57:19.814Z,12.82
2022-11-15T03:00:24.214Z,13.70
2022-11-15T03:03:55.113Z,13.05
2022-11-15T03:07:08.793Z,14.40
2022-11-15T03:10:26.705Z,13.43
2022-11-15T03:13:40.747Z,13.68
2022-11-15T03:17:11.070Z,12.73
2022-11-15T03:20:18.184Z,14.18
2022-11-15T03:23:23.376Z,13.82
2022-11-15T03:26:29.206Z,15.18
2022-11-15T03:29:40.964Z,13.77
2022-11-15T03:32:51.065Z,14.52
2022-11-15T03:35:55.753Z,14.82
2022-11-15T03:39:03.072Z,15.80
2022-11-15T03:42:23.067Z,16.33
2022-11-15T03:45:33.565Z,16.13
2022-11-15T03:48:54.766Z,14.90
2022-11-15T03:52:00.271Z,16.63
2022-11-15T03:55:07.037Z,16.35
2022-11-15T03:58:11.401Z,17.13
2022-11-15T04:01:15.746Z,18.15
2022-11-15T04:04:20.280Z,18.00
2022-11-15T04:07:24.969Z,18.65
2022-11-15T04:10:29.465Z,17.90
2022-11-15T04:13:33.936Z,18.35
2022-11-15T04:16:43.518Z,18.45
2022-11-15T04:20:06.442Z,18.60
2022-11-15T04:23:33.614Z,17.33
2022-11-15T04:26:38.148Z,16.70
2022-11-15T04:29:42.189Z,16.35
2022-11-15T04:32:46.658Z,17.75
2022-11-15T04:36:09.497Z,18.50
2022-11-15T04:42:17.907Z,17.23
2022-11-15T04:45:22.099Z,19.15
2022-11-15T04:48:26.247Z,17.38
2022-11-15T04:51:30.615Z,17.65
2022-11-15T04:54:35.258Z,17.83
2022-11-15T04:57:39.552Z,20.50
2022-11-15T05:00:43.747Z,18.67
2022-11-15T05:04:06.919Z,20.27
2022-11-15T05:07:11.181Z,20.23
2022-11-15T05:10:15.438Z,20.98
2022-11-15T05:13:19.629Z,17.90
2022-11-15T05:16:24.075Z,20.13
2022-11-15T05:19:28.332Z,21.65
2022-11-15T05:22:32.495Z,19.30
2022-11-15T05:25:37.230Z,19.35
2022-11-15T05:28:41.657Z,22.50
2022-11-15T05:31:45.584Z,24.75
2022-11-15T05:34:50.008Z,23.58
2022-11-15T05:37:54.120Z,20.27
2022-11-15T05:40:59.026Z,16.65
2022-11-15T05:44:06.709Z,19.73
2022-11-15T05:47:18.067Z,19.85
2022-11-15T05:50:22.441Z,19.38
2022-11-15T05:53:27.077Z,21.38
2022-11-15T05:56:31.644Z,20.45
2022-11-15T05:59:37.946Z,20.48
2022-11-15T06:02:43.446Z,22.05
2022-11-15T06:05:47.878Z,20.73
2022-11-15T06:08:52.059Z,20.30
2022-11-15T06:11:56.360Z,21.73
2022-11-15T06:15:00.745Z,21.33
2022-11-15T06:18:05.071Z,16.85
2022-11-15T06:21:09.109Z,20.23
2022-11-15T06:24:13.841Z,19.90
2022-11-15T06:27:18.256Z,20.08
2022-11-15T06:30:23.796Z,18.08
2022-11-15T06:33:28.055Z,17.35
2022-11-15T06:36:34.868Z,17.63
2022-11-15T06:39:38.999Z,16.73
2022-11-15T06:42:43.248Z,19.55
2022-11-15T06:45:47.582Z,20.42
2022-11-15T06:48:53.135Z,17.45
2022-11-15T06:51:57.612Z,20.15
2022-11-15T06:55:01.984Z,21.20
2022-11-15T06:58:06.181Z,19.13
2022-11-15T07:01:12.835Z,20.48
2022-11-15T07:04:17.219Z,19.05
2022-11-15T07:07:21.955Z,19.63
2022-11-15T07:10:26.908Z,20.05
2022-11-15T07:13:35.745Z,19.25
2022-11-15T07:16:40.223Z,20.38
2022-11-15T07:19:44.450Z,20.40
2022-11-15T07:22:48.831Z,21.48
2022-11-15T07:25:53.467Z,19.17
2022-11-15T07:28:58.322Z,20.83
2022-11-15T07:32:03.134Z,24.13
2022-11-15T07:35:07.576Z,23.60
2022-11-15T07:38:11.589Z,21.35
2022-11-15T07:41:16.172Z,20.08
2022-11-15T07:44:20.460Z,17.98
2022-11-15T07:47:24.852Z,18.92
2022-11-15T07:50:32.133Z,18.98
2022-11-15T07:53:36.254Z,20.02
2022-11-15T07:56:40.431Z,20.55
2022-11-15T07:59:44.906Z,21.38
2022-11-15T08:02:49.446Z,22.92
2022-11-15T08:05:53.913Z,21.73
2022-11-15T08:08:58.007Z,20.75
2022-11-15T08:12:02.507Z,22.92
2022-11-15T08:15:07.397Z,21.98
2022-11-15T08:18:14.590Z,24.40
2022-11-15T08:21:21.086Z,26.05
2022-11-15T08:24:25.679Z,26.77
2022-11-15T08:27:30.092Z,22.90
2022-11-15T08:30:38.124Z,19.35
2022-11-15T08:33:42.485Z,21.08
2022-11-15T08:36:47.710Z,21.88
2022-11-15T08:39:51.981Z,25.65
2022-11-15T08:42:56.389Z,24.05
2022-11-15T08:46:00.803Z,22.52
2022-11-15T08:49:05.294Z,23.10
2022-11-15T08:52:09.359Z,23.55
2022-11-15T08:55:14.657Z,21.67
2022-11-15T08:58:20.065Z,22.67
2022-11-15T09:01:25.528Z,19.23
2022-11-15T09:04:30.235Z,22.00
2022-11-15T09:07:34.454Z,24.25
2022-11-15T09:10:38.510Z,21.15
2022-11-15T09:13:43.357Z,21.05
2022-11-15T09:16:47.532Z,20.73
2022-11-15T09:19:53.186Z,20.08
2022-11-15T09:23:02.254Z,22.23
2022-11-15T09:26:07.249Z,20.90
2022-11-15T09:29:11.312Z,20.42
2022-11-15T09:32:15.982Z,19.45
2022-11-15T09:35:20.390Z,17.90
2022-11-15T09:38:24.684Z,20.95
2022-11-15T09:41:40.942Z,21.00
2022-11-15T09:45:08.421Z,18.98
2022-11-15T09:48:37.385Z,18.88
2022-11-15T09:51:51.646Z,19.98
2022-11-15T09:54:58.183Z,17.92
2022-11-15T09:58:16.845Z,19.13
2022-11-15T10:01:13.232Z,20.30
2022-11-15T10:04:05.521Z,18.15
2022-11-15T10:07:04.218Z,18.15
2022-11-15T10:10:04.376Z,21.73
2022-11-15T10:12:52.725Z,19.88
2022-11-15T10:15:38.536Z,18.48
2022-11-15T10:18:49.181Z,20.63
2022-11-15T10:21:47.738Z,18.55
2022-11-15T10:24:38.514Z,17.38
2022-11-15T10:27:24.636Z,18.35
2022-11-15T10:30:16.626Z,17.73
2022-11-15T10:33:19.802Z,20.20
2022-11-15T10:36:14.259Z,19.08
2022-11-15T10:39:00.105Z,19.23
2022-11-15T10:41:45.512Z,20.02
2022-11-15T10:44:32.163Z,19.95
2022-11-15T10:47:37.672Z,18.35
2022-11-15T10:50:33.459Z,17.85
2022-11-15T10:56:29.411Z,18.58
2022-11-15T10:59:22.002Z,18.55
2022-11-15T11:02:35.296Z,16.55
2022-11-15T11:05:29.119Z,14.55
2022-11-15T11:08:14.376Z,18.20
2022-11-15T11:11:03.484Z,18.23
2022-11-15T11:13:49.347Z,19.38
2022-11-15T11:16:43.463Z,20.02
2022-11-15T11:19:47.966Z,19.83
2022-11-15T11:22:36.420Z,20.63
2022-11-15T11:25:56.595Z,22.73
2022-11-15T11:28:47.607Z,21.40
2022-11-15T11:31:54.482Z,18.95
2022-11-15T11:34:55.670Z,18.58
2022-11-15T11:37:50.337Z,18.27
2022-11-15T11:40:50.245Z,16.88
2022-11-15T11:43:57.258Z,18.38
2022-11-15T11:46:50.855Z,17.10
2022-11-15T11:49:47.087Z,16.40
2022-11-15T11:52:40.972Z,18.15
2022-11-15T11:55:32.788Z,17.50
2022-11-15T11:58:36.233Z,17.17
2022-11-15T12:01:30.275Z,17.02
2022-11-15T12:04:15.604Z,17.00
2022-11-15T12:07:14.907Z,16.20
2022-11-15T12:10:29.707Z,15.50
2022-11-15T12:13:26.625Z,17.73
2022-11-15T12:16:25.801Z,16.30
2022-11-15T12:19:11.807Z,15.45
2022-11-15T12:22:27.807Z,16.50
2022-11-15T12:25:40.315Z,14.90
2022-11-15T12:29:06.814Z,15.85
2022-11-15T12:32:01.052Z,16.27
2022-11-15T12:34:49.163Z,28.48
2022-11-15T12:37:38.841Z,17.00
2022-11-15T12:40:31.047Z,17.95
2022-11-15T12:43:16.737Z,18.83
2022-11-15T12:46:05.618Z,16.27
2022-11-15T12:48:55.996Z,16.67
2022-11-15T12:51:44.880Z,17.48
2022-11-15T12:54:33.341Z,16.90
2022-11-15T12:57:18.624Z,16.00
2022-11-15T13:00:16.410Z,17.13
2022-11-15T13:03:20.116Z,16.63
2022-11-15T13:06:08.337Z,17.30
2022-11-15T13:08:53.918Z,15.30
2022-11-15T13:11:47.769Z,15.15
2022-11-15T13:14:47.065Z,16.52
2022-11-15T13:17:34.846Z,15.02
2022-11-15T13:20:24.931Z,31.27
2022-11-15T13:23:14.707Z,19.02
2022-11-15T13:26:17.724Z,13.70
2022-11-15T13:29:04.562Z,17.13
2022-11-15T13:31:50.240Z,14.90
2022-11-15T13:34:53.327Z,14.00
2022-11-15T13:37:40.925Z,13.55
2022-11-15T13:40:36.309Z,15.77
2022-11-15T13:43:36.458Z,14.80
2022-11-15T13:46:30.946Z,14.52
2022-11-15T13:49:16.590Z,17.05
2022-11-15T13:52:07.021Z,17.80
2022-11-15T13:55:09.226Z,17.40
2022-11-15T13:57:59.293Z,18.50
2022-11-15T14:00:48.270Z,17.65
2022-11-15T14:03:40.075Z,20.25
2022-11-15T14:06:28.332Z,18.30
2022-11-15T14:09:41.031Z,20.35
2022-11-15T14:15:37.757Z,18.27
2022-11-15T14:18:43.969Z,18.38
2022-11-15T14:21:30.354Z,18.70
2022-11-15T14:24:21.336Z,21.10
2022-11-15T14:27:29.319Z,21.13
2022-11-15T14:30:18.603Z,18.30
2022-11-15T14:33:19.964Z,19.55
2022-11-15T14:36:19.083Z,20.50
2022-11-15T14:39:06.467Z,20.38
2022-11-15T14:41:51.830Z,23.13
2022-11-15T14:44:38.203Z,24.30
2022-11-15T14:47:25.847Z,25.42
2022-11-15T14:50:15.097Z,22.88
2022-11-15T14:53:00.949Z,22.55
2022-11-15T14:55:46.645Z,24.70
2022-11-15T14:58:32.226Z,26.38
2022-11-15T15:01:27.625Z,20.92
2022-11-15T15:04:13.259Z,18.65
2022-11-15T15:06:58.717Z,17.73
2022-11-15T15:09:44.991Z,17.88
2022-11-15T17:20:46.261Z,38.22
2022-11-15T17:23:33.570Z,40.80
2022-11-15T17:26:37.785Z,36.08
2022-11-15T17:29:25.863Z,30.10
2022-11-15T17:32:12.457Z,33.00
2022-11-15T17:34:57.851Z,30.60
2022-11-15T17:37:44.189Z,31.15
2022-11-15T17:40:29.904Z,28.58
2022-11-15T17:43:16.840Z,27.17
2022-11-15T17:46:06.712Z,25.88
2022-11-15T17:48:52.177Z,24.98
2022-11-15T17:51:37.643Z,25.55
2022-11-15T17:54:22.958Z,27.67
2022-11-15T17:57:08.305Z,28.55
2022-11-15T17:59:53.873Z,30.40
2022-11-15T18:02:39.373Z,28.77
2022-11-15T18:05:24.670Z,28.33
2022-11-15T18:08:15.428Z,30.20
2022-11-15T18:11:08.355Z,30.25
2022-11-15T18:13:57.066Z,32.30
2022-11-15T18:16:43.002Z,27.85
2022-11-15T18:19:28.696Z,27.15
2022-11-15T18:22:14.135Z,22.67
2022-11-15T18:24:59.506Z,22.38
2022-11-15T18:27:45.159Z,22.00
2022-11-15T18:30:30.998Z,20.98
2022-11-15T18:33:16.553Z,18.95
2022-11-15T18:36:04.417Z,21.05
2022-11-15T18:38:57.792Z,23.98
2022-11-15T18:41:46.577Z,21.73
2022-11-15T18:44:32.473Z,21.13
2022-11-15T18:47:18.021Z,23.70
2022-11-15T18:50:03.617Z,26.02
2022-11-15T18:52:49.045Z,26.23
2022-11-15T18:55:34.380Z,26.05
2022-11-15T18:58:19.766Z,25.92
2022-11-15T19:01:07.628Z,24.80
2022-11-15T19:03:56.131Z,24.45
2022-11-15T19:06:44.929Z,26.05
2022-11-15T19:09:32.805Z,23.48
2022-11-15T19:12:18.513Z,23.67
2022-11-15T19:15:09.833Z,23.45
2022-11-15T19:17:55.553Z,21.90
2022-11-15T19:20:41.591Z,22.70
2022-11-15T19:23:27.296Z,26.88
2022-11-15T19:26:14.214Z,27.88
2022-11-15T19:29:01.917Z,29.08
2022-11-15T19:31:48.732Z,30.08
2022-11-15T19:34:34.603Z,34.42
2022-11-15T19:37:19.962Z,33.92
2022-11-15T19:40:06.483Z,32.53
2022-11-15T19:42:51.645Z,30.98
2022-11-15T19:45:37.277Z,42.33
2022-11-15T19:48:23.061Z,53.65
2022-11-15T19:51:30.487Z,53.35
2022-11-15T19:54:19.072Z,41.72
2022-11-15T19:57:07.393Z,32.67
2022-11-15T19:59:52.893Z,40.38
2022-11-15T20:02:38.297Z,37.08
2022-11-15T20:05:24.303Z,32.72
2022-11-15T20:08:09.978Z,37.03
2022-11-15T20:10:55.494Z,41.30
2022-11-15T20:13:42.172Z,41.60
2022-11-15T20:16:28.409Z,33.17
2022-11-15T20:19:15.897Z,32.72
2022-11-15T20:22:01.347Z,28.45
2022-11-15T20:24:46.552Z,25.40
2022-11-15T20:27:32.274Z,25.70
2022-11-15T20:30:18.129Z,23.08
2022-11-15T20:33:04.330Z,22.17
2022-11-15T20:35:50.311Z,21.00
2022-11-15T20:38:35.837Z,22.27
2022-11-15T20:41:21.385Z,22.60
2022-11-15T20:44:06.687Z,22.50
2022-11-15T20:46:52.060Z,25.58
2022-11-15T20:49:37.431Z,32.17
2022-11-15T20:52:22.737Z,34.75
2022-11-15T20:55:08.827Z,30.67
2022-11-15T20:57:54.741Z,29.67
2022-11-15T21:00:42.024Z,29.02
2022-11-15T21:03:28.386Z,26.35
2022-11-15T21:06:24.611Z,28.38
2022-11-15T21:09:39.023Z,29.67
2022-11-15T21:12:25.254Z,31.08
2022-11-15T21:15:10.721Z,34.40
2022-11-15T21:17:56.117Z,27.88
2022-11-15T21:20:41.785Z,42.40
2022-11-15T21:23:27.359Z,30.52
2022-11-15T21:26:12.668Z,29.13
2022-11-15T21:28:58.027Z,27.23
2022-11-15T21:31:45.146Z,37.08
2022-11-15T21:34:30.637Z,52.67
2022-11-15T21:37:16.480Z,32.30
2022-11-15T21:40:01.746Z,32.60
2022-11-15T21:42:47.149Z,29.58
2022-11-15T21:45:32.613Z,27.77
2022-11-15T21:48:19.115Z,29.52
2022-11-15T21:51:07.247Z,31.10
2022-11-15T21:53:56.561Z,30.63
2022-11-15T21:56:43.252Z,29.58
2022-11-15T21:59:28.808Z,30.25
2022-11-15T22:02:14.468Z,30.92
2022-11-15T22:08:03.097Z,25.95
2022-11-15T22:10:49.831Z,24.17
2022-11-15T22:13:36.141Z,20.08
2022-11-15T22:16:21.741Z,19.80
2022-11-15T22:19:07.367Z,17.83
2022-11-15T22:21:54.168Z,17.40
2022-11-15T22:24:39.514Z,18.98
2022-11-15T22:27:24.700Z,16.58
2022-11-15T22:30:10.922Z,15.20
2022-11-15T22:32:56.443Z,15.50
2022-11-15T22:35:42.374Z,15.98
2022-11-15T22:38:28.593Z,15.02
2022-11-15T22:41:14.315Z,15.65
2022-11-15T22:43:59.791Z,14.60
2022-11-15T22:46:45.362Z,14.45
2022-11-15T22:49:30.682Z,15.40
2022-11-15T22:52:16.154Z,15.50
2022-11-15T22:55:01.574Z,15.18
2022-11-15T22:57:47.066Z,16.10
2022-11-15T23:00:32.545Z,13.93
2022-11-15T23:03:19.338Z,14.60
2022-11-15T23:06:06.687Z,15.55
2022-11-15T23:08:52.524Z,19.15
2022-11-15T23:11:56.455Z,17.35
2022-11-15T23:14:41.817Z,17.73
2022-11-15T23:17:27.313Z,18.40
2022-11-15T23:20:41.446Z,19.10
2022-11-15T23:23:18.307Z,16.88
2022-11-15T23:26:03.754Z,18.02
2022-11-15T23:28:49.119Z,18.13
2022-11-15T23:32:01.155Z,17.38
2022-11-15T23:34:47.388Z,18.95
2022-11-15T23:37:33.586Z,20.17
2022-11-15T23:40:19.088Z,19.92
2022-11-15T23:43:04.640Z,20.80
2022-11-15T23:45:49.937Z,22.90
2022-11-15T23:48:35.722Z,22.80
2022-11-15T23:51:21.750Z,21.33
2022-11-15T23:54:07.504Z,21.70
2022-11-15T23:56:52.889Z,22.77
2022-11-15T23:59:39.819Z,21.48
